sensor_id;sensor_type;location;lat;lon;timestamp;P1;durP1;ratioP1;P2;durP2;ratioP2
38248;SDS011;24045;51.138;17.126;2023-05-24T00:09:44;14.40;;;11.00;;
38248;SDS011;24045;51.138;17.126;2023-05-24T00:24:47;12.10;;;8.60;;
38248;SDS011;24045;51.138;17.126;2023-05-24T00:39:50;14.00;;;10.30;;
38248;SDS011;24045;51.138;17.126;2023-05-24T00:54:53;6.30;;;3.70;;
38248;SDS011;24045;51.138;17.126;2023-05-24T01:10:10;6.40;;;3.60;;
38248;SDS011;24045;51.138;17.126;2023-05-24T01:40:46;1.30;;;1.10;;
38248;SDS011;24045;51.138;17.126;2023-05-24T01:55:54;1.10;;;1.10;;
38248;SDS011;24045;51.138;17.126;2023-05-24T02:10:58;3.10;;;1.50;;
38248;SDS011;24045;51.138;17.126;2023-05-24T02:26:01;7.40;;;2.40;;
38248;SDS011;24045;51.138;17.126;2023-05-24T02:56:06;5.70;;;2.30;;
38248;SDS011;24045;51.138;17.126;2023-05-24T03:11:10;5.10;;;2.30;;
38248;SDS011;24045;51.138;17.126;2023-05-24T03:26:12;3.20;;;1.90;;
38248;SDS011;24045;51.138;17.126;2023-05-24T03:41:15;5.50;;;2.00;;
38248;SDS011;24045;51.138;17.126;2023-05-24T03:56:18;4.90;;;2.40;;
38248;SDS011;24045;51.138;17.126;2023-05-24T04:11:21;6.00;;;2.50;;
38248;SDS011;24045;51.138;17.126;2023-05-24T04:26:25;7.10;;;3.30;;
38248;SDS011;24045;51.138;17.126;2023-05-24T04:41:27;5.40;;;2.70;;
38248;SDS011;24045;51.138;17.126;2023-05-24T04:56:34;9.20;;;3.90;;
38248;SDS011;24045;51.138;17.126;2023-05-24T05:11:37;6.40;;;3.50;;
38248;SDS011;24045;51.138;17.126;2023-05-24T05:26:41;7.10;;;4.60;;
38248;SDS011;24045;51.138;17.126;2023-05-24T05:57:44;11.30;;;5.00;;
38248;SDS011;24045;51.138;17.126;2023-05-24T06:12:47;10.80;;;4.10;;
38248;SDS011;24045;51.138;17.126;2023-05-24T06:27:50;12.20;;;4.30;;
38248;SDS011;24045;51.138;17.126;2023-05-24T06:42:53;12.10;;;4.60;;
38248;SDS011;24045;51.138;17.126;2023-05-24T06:57:55;14.60;;;4.40;;
38248;SDS011;24045;51.138;17.126;2023-05-24T07:12:58;14.90;;;4.40;;
38248;SDS011;24045;51.138;17.126;2023-05-24T07:28:01;9.90;;;4.10;;
38248;SDS011;24045;51.138;17.126;2023-05-24T07:43:04;11.40;;;4.50;;
38248;SDS011;24045;51.138;17.126;2023-05-24T07:58:07;10.10;;;4.60;;
38248;SDS011;24045;51.138;17.126;2023-05-24T08:13:11;12.60;;;5.10;;
38248;SDS011;24045;51.138;17.126;2023-05-24T08:28:14;13.10;;;5.40;;
38248;SDS011;24045;51.138;17.126;2023-05-24T08:43:18;14.90;;;6.00;;
38248;SDS011;24045;51.138;17.126;2023-05-24T08:58:23;15.40;;;5.60;;
38248;SDS011;24045;51.138;17.126;2023-05-24T09:13:25;15.70;;;5.10;;
38248;SDS011;24045;51.138;17.126;2023-05-24T09:28:30;10.70;;;5.00;;
38248;SDS011;24045;51.138;17.126;2023-05-24T09:43:34;10.20;;;4.20;;
38248;SDS011;24045;51.138;17.126;2023-05-24T09:58:49;9.80;;;4.70;;
38248;SDS011;24045;51.138;17.126;2023-05-24T10:13:58;10.90;;;5.10;;
38248;SDS011;24045;51.138;17.126;2023-05-24T10:29:03;10.80;;;4.80;;
38248;SDS011;24045;51.138;17.126;2023-05-24T10:44:10;11.80;;;4.90;;
38248;SDS011;24045;51.138;17.126;2023-05-24T10:59:34;15.20;;;5.20;;
38248;SDS011;24045;51.138;17.126;2023-05-24T11:14:45;11.60;;;5.20;;
38248;SDS011;24045;51.138;17.126;2023-05-24T11:29:53;11.50;;;4.70;;
38248;SDS011;24045;51.138;17.126;2023-05-24T11:44:57;11.50;;;4.80;;
38248;SDS011;24045;51.138;17.126;2023-05-24T12:00:00;10.50;;;4.30;;
38248;SDS011;24045;51.138;17.126;2023-05-24T12:15:05;14.30;;;4.80;;
38248;SDS011;24045;51.138;17.126;2023-05-24T12:30:09;11.20;;;5.30;;
38248;SDS011;24045;51.138;17.126;2023-05-24T12:45:21;9.80;;;4.10;;
38248;SDS011;24045;51.138;17.126;2023-05-24T13:00:27;12.00;;;4.10;;
38248;SDS011;24045;51.138;17.126;2023-05-24T13:15:31;11.70;;;4.20;;
38248;SDS011;24045;51.138;17.126;2023-05-24T13:30:34;13.70;;;4.60;;
38248;SDS011;24045;51.138;17.126;2023-05-24T13:45:37;13.20;;;4.80;;
38248;SDS011;24045;51.138;17.126;2023-05-24T14:00:40;11.30;;;3.90;;
38248;SDS011;24045;51.138;17.126;2023-05-24T14:15:44;11.60;;;4.40;;
38248;SDS011;24045;51.138;17.126;2023-05-24T14:30:48;10.10;;;4.00;;
38248;SDS011;24045;51.138;17.126;2023-05-24T14:45:51;13.60;;;4.30;;
38248;SDS011;24045;51.138;17.126;2023-05-24T15:00:54;11.00;;;4.30;;
38248;SDS011;24045;51.138;17.126;2023-05-24T15:15:57;9.90;;;3.60;;
38248;SDS011;24045;51.138;17.126;2023-05-24T15:31:02;10.10;;;3.60;;
38248;SDS011;24045;51.138;17.126;2023-05-24T15:46:05;8.00;;;3.60;;
38248;SDS011;24045;51.138;17.126;2023-05-24T16:01:08;8.10;;;3.20;;
38248;SDS011;24045;51.138;17.126;2023-05-24T16:16:11;11.20;;;4.50;;
38248;SDS011;24045;51.138;17.126;2023-05-24T16:31:14;7.70;;;4.30;;
38248;SDS011;24045;51.138;17.126;2023-05-24T16:46:17;9.10;;;4.50;;
38248;SDS011;24045;51.138;17.126;2023-05-24T17:01:21;10.90;;;6.10;;
38248;SDS011;24045;51.138;17.126;2023-05-24T17:16:24;11.00;;;5.70;;
38248;SDS011;24045;51.138;17.126;2023-05-24T17:31:30;12.40;;;6.60;;
38248;SDS011;24045;51.138;17.126;2023-05-24T17:46:34;9.80;;;4.80;;
38248;SDS011;24045;51.138;17.126;2023-05-24T18:01:41;13.70;;;4.60;;
38248;SDS011;24045;51.138;17.126;2023-05-24T18:16:45;9.80;;;4.10;;
38248;SDS011;24045;51.138;17.126;2023-05-24T18:31:49;14.20;;;4.80;;
38248;SDS011;24045;51.138;17.126;2023-05-24T18:46:52;12.90;;;5.30;;
38248;SDS011;24045;51.138;17.126;2023-05-24T19:01:58;26.90;;;11.70;;
38248;SDS011;24045;51.138;17.126;2023-05-24T19:17:02;24.80;;;12.20;;
38248;SDS011;24045;51.138;17.126;2023-05-24T19:32:05;21.80;;;9.60;;
38248;SDS011;24045;51.138;17.126;2023-05-24T19:47:11;18.20;;;7.20;;
38248;SDS011;24045;51.138;17.126;2023-05-24T20:17:25;14.20;;;5.90;;
38248;SDS011;24045;51.138;17.126;2023-05-24T20:32:29;12.60;;;6.30;;
38248;SDS011;24045;51.138;17.126;2023-05-24T21:17:38;18.50;;;8.80;;
38248;SDS011;24045;51.138;17.126;2023-05-24T21:32:41;16.50;;;7.80;;
38248;SDS011;24045;51.138;17.126;2023-05-24T21:47:44;16.40;;;8.50;;
38248;SDS011;24045;51.138;17.126;2023-05-24T22:02:47;14.70;;;8.00;;
38248;SDS011;24045;51.138;17.126;2023-05-24T22:17:51;16.30;;;8.60;;
38248;SDS011;24045;51.138;17.126;2023-05-24T22:32:53;18.60;;;9.50;;
38248;SDS011;24045;51.138;17.126;2023-05-24T22:47:57;18.60;;;9.40;;
38248;SDS011;24045;51.138;17.126;2023-05-24T23:03:00;14.90;;;9.00;;
38248;SDS011;24045;51.138;17.126;2023-05-24T23:18:04;17.40;;;10.30;;
38248;SDS011;24045;51.138;17.126;2023-05-24T23:33:11;19.90;;;9.40;;
